createdAt,value
2022-12-03T00:00:28.727Z,-3.96
2022-12-03T00:03:18.884Z,-3.95
2022-12-03T00:05:50.439Z,-4.02
2022-12-03T00:08:18.924Z,-4.04
2022-12-03T00:10:47.470Z,-4.03
2022-12-03T00:13:16.740Z,-4.01
2022-12-03T00:16:07.641Z,-4.02
2022-12-03T00:18:50.727Z,-4.04
2022-12-03T00:21:24.887Z,-4.01
2022-12-03T00:24:12.851Z,-4.00
2022-12-03T00:26:47.608Z,-4.02
2022-12-03T00:29:18.571Z,-4.04
2022-12-03T00:31:53.079Z,-4.06
2022-12-03T00:34:28.619Z,-4.09
2022-12-03T00:37:00.109Z,-4.11
2022-12-03T00:39:34.923Z,-4.10
2022-12-03T00:42:05.893Z,-4.10
2022-12-03T00:44:34.440Z,-4.12
2022-12-03T00:47:05.926Z,-4.14
2022-12-03T00:49:36.671Z,-4.12
2022-12-03T00:52:04.882Z,-4.13
2022-12-03T00:54:34.701Z,-4.16
2022-12-03T00:57:09.963Z,-4.19
2022-12-03T00:59:42.472Z,-4.20
2022-12-03T01:02:11.417Z,-4.20
2022-12-03T01:04:40.574Z,-4.15
2022-12-03T01:07:09.124Z,-4.15
2022-12-03T01:09:37.720Z,-4.17
2022-12-03T01:12:08.037Z,-4.17
2022-12-03T01:14:38.159Z,-4.19
2022-12-03T01:17:11.797Z,-4.17
2022-12-03T01:19:48.036Z,-4.21
2022-12-03T01:22:16.851Z,-4.23
2022-12-03T01:24:45.368Z,-4.20
2022-12-03T01:27:14.249Z,-4.20
2022-12-03T01:29:42.675Z,-4.21
2022-12-03T01:32:17.396Z,-4.17
2022-12-03T01:34:48.017Z,-4.16
2022-12-03T01:37:17.540Z,-4.16
2022-12-03T01:39:46.140Z,-4.19
2022-12-03T01:42:30.469Z,-4.20
2022-12-03T01:45:01.167Z,-4.19
2022-12-03T01:47:36.654Z,-4.18
2022-12-03T01:50:21.098Z,-4.17
2022-12-03T01:52:50.255Z,-4.17
2022-12-03T01:55:21.414Z,-4.17
2022-12-03T01:57:57.875Z,-4.17
2022-12-03T02:00:28.846Z,-4.19
2022-12-03T02:03:04.220Z,-4.15
2022-12-03T02:05:34.654Z,-4.13
2022-12-03T02:08:34.842Z,-4.14
2022-12-03T02:11:11.965Z,-4.13
2022-12-03T02:13:40.590Z,-4.10
2022-12-03T02:16:09.478Z,-4.11
2022-12-03T02:18:41.120Z,-4.11
2022-12-03T02:21:16.836Z,-4.11
2022-12-03T02:24:00.588Z,-4.13
2022-12-03T02:26:30.044Z,-4.11
2022-12-03T02:29:01.632Z,-4.11
2022-12-03T02:31:30.284Z,-4.11
2022-12-03T02:33:59.404Z,-4.12
2022-12-03T02:36:28.810Z,-4.09
2022-12-03T02:38:57.446Z,-4.08
2022-12-03T02:41:44.567Z,-4.06
2022-12-03T02:44:16.366Z,-4.01
2022-12-03T02:46:44.929Z,-4.02
2022-12-03T02:49:14.011Z,-4.04
2022-12-03T02:51:45.712Z,-4.05
2022-12-03T02:54:15.980Z,-4.09
2022-12-03T02:56:44.388Z,-4.10
2022-12-03T02:59:13.207Z,-4.09
2022-12-03T03:01:41.660Z,-4.11
2022-12-03T03:04:10.488Z,-4.09
2022-12-03T03:06:38.830Z,-4.05
2022-12-03T03:09:07.425Z,-4.01
2022-12-03T03:11:38.672Z,-4.02
2022-12-03T03:14:07.010Z,-4.03
2022-12-03T03:16:36.997Z,-4.02
2022-12-03T03:19:05.402Z,-3.99
2022-12-03T03:21:34.579Z,-4.01
2022-12-03T03:24:03.142Z,-4.02
2022-12-03T03:26:34.266Z,-4.04
2022-12-03T03:29:03.431Z,-4.02
2022-12-03T03:31:32.091Z,-4.02
2022-12-03T03:34:01.449Z,-4.01
2022-12-03T03:36:34.344Z,-3.98
2022-12-03T03:39:05.157Z,-3.96
2022-12-03T03:41:35.478Z,-3.92
2022-12-03T03:44:07.411Z,-3.93
2022-12-03T03:46:37.451Z,-4.00
2022-12-03T03:49:06.964Z,-4.02
2022-12-03T03:51:36.650Z,-4.02
2022-12-03T03:54:06.130Z,-3.99
2022-12-03T03:56:35.565Z,-4.01
2022-12-03T03:59:04.498Z,-4.05
2022-12-03T04:01:33.392Z,-4.04
2022-12-03T04:04:03.082Z,-4.04
2022-12-03T04:06:34.608Z,-4.05
2022-12-03T04:09:03.377Z,-4.06
2022-12-03T04:11:52.939Z,-4.06
2022-12-03T04:14:21.178Z,-4.04
2022-12-03T04:16:49.486Z,-4.02
2022-12-03T04:19:18.430Z,-4.03
2022-12-03T04:22:05.526Z,-4.04
2022-12-03T04:24:36.938Z,-4.07
2022-12-03T04:27:23.867Z,-4.09
2022-12-03T04:29:54.471Z,-4.08
2022-12-03T04:32:41.634Z,-4.04
2022-12-03T04:35:29.830Z,-4.00
2022-12-03T04:37:58.478Z,-3.97
2022-12-03T04:40:47.082Z,-3.98
2022-12-03T04:43:16.077Z,-3.99
2022-12-03T04:45:44.528Z,-4.02
2022-12-03T04:48:13.304Z,-4.03
2022-12-03T04:50:42.216Z,-4.00
2022-12-03T04:53:11.320Z,-3.99
2022-12-03T04:55:39.860Z,-4.02
2022-12-03T04:58:12.793Z,-4.02
2022-12-03T05:00:42.547Z,-4.02
2022-12-03T05:03:14.780Z,-4.01
2022-12-03T05:05:43.295Z,-4.00
2022-12-03T05:08:11.958Z,-4.01
2022-12-03T05:10:40.988Z,-3.99
2022-12-03T05:13:09.754Z,-3.98
2022-12-03T05:15:38.519Z,-3.97
2022-12-03T05:18:06.680Z,-3.93
2022-12-03T05:20:44.756Z,-3.94
2022-12-03T05:23:18.776Z,-3.97
2022-12-03T05:25:47.159Z,-3.98
2022-12-03T05:28:15.826Z,-4.00
2022-12-03T05:30:47.212Z,-4.03
2022-12-03T05:33:16.263Z,-4.03
2022-12-03T05:35:45.178Z,-4.02
2022-12-03T05:38:14.296Z,-4.03
2022-12-03T05:40:43.310Z,-4.00
2022-12-03T05:43:11.667Z,-3.97
2022-12-03T05:45:42.513Z,-3.96
2022-12-03T05:48:15.682Z,-3.94
2022-12-03T05:50:48.771Z,-3.92
2022-12-03T05:53:19.044Z,-3.96
2022-12-03T05:55:47.769Z,-3.95
2022-12-03T05:58:16.334Z,-3.94
2022-12-03T06:00:44.757Z,-3.94
2022-12-03T06:03:15.741Z,-3.94
2022-12-03T06:05:44.735Z,-3.94
2022-12-03T06:08:13.505Z,-3.92
2022-12-03T06:10:42.127Z,-3.93
2022-12-03T06:13:10.682Z,-3.94
2022-12-03T06:15:43.479Z,-3.92
2022-12-03T06:18:13.336Z,-3.92
2022-12-03T06:20:41.839Z,-3.90
2022-12-03T06:23:10.709Z,-3.91
2022-12-03T06:25:39.066Z,-3.91
2022-12-03T06:28:07.665Z,-3.92
2022-12-03T06:30:36.620Z,-3.93
2022-12-03T06:33:04.962Z,-3.97
2022-12-03T06:35:33.588Z,-3.93
2022-12-03T06:38:01.775Z,-3.91
2022-12-03T06:40:29.939Z,-3.93
2022-12-03T06:42:58.311Z,-3.94
2022-12-03T06:45:26.960Z,-3.92
2022-12-03T06:47:55.040Z,-3.91
2022-12-03T06:50:23.223Z,-3.90
2022-12-03T06:52:51.382Z,-3.92
2022-12-03T06:55:22.382Z,-3.89
2022-12-03T06:57:54.138Z,-3.86
2022-12-03T07:00:23.163Z,-3.88
2022-12-03T07:02:59.451Z,-3.86
2022-12-03T07:05:30.718Z,-3.87
2022-12-03T07:07:59.852Z,-3.87
2022-12-03T07:10:28.457Z,-3.87
2022-12-03T07:12:57.488Z,-3.87
2022-12-03T07:15:27.211Z,-3.86
2022-12-03T07:17:55.935Z,-3.88
2022-12-03T07:20:24.177Z,-3.86
2022-12-03T07:22:52.886Z,-3.82
2022-12-03T07:25:23.457Z,-3.77
2022-12-03T07:27:58.240Z,-3.75
2022-12-03T07:30:28.183Z,-3.76
2022-12-03T07:32:56.903Z,-3.80
2022-12-03T07:35:28.001Z,-3.81
2022-12-03T07:37:58.958Z,-3.79
2022-12-03T07:40:28.649Z,-3.78
2022-12-03T07:43:01.558Z,-3.80
2022-12-03T07:45:30.571Z,-3.77
2022-12-03T07:48:04.303Z,-3.74
2022-12-03T07:50:33.097Z,-3.77
2022-12-03T07:53:04.514Z,-3.75
2022-12-03T07:55:35.823Z,-3.77
2022-12-03T07:58:04.523Z,-3.74
2022-12-03T08:00:35.865Z,-3.70
2022-12-03T08:03:08.678Z,-3.68
2022-12-03T08:05:39.637Z,-3.69
2022-12-03T08:08:08.583Z,-3.70
2022-12-03T08:10:36.947Z,-3.70
2022-12-03T08:13:14.830Z,-3.69
2022-12-03T08:15:46.058Z,-3.69
2022-12-03T08:18:16.603Z,-3.67
2022-12-03T08:20:46.687Z,-3.66
2022-12-03T08:23:20.144Z,-3.64
2022-12-03T08:25:52.866Z,-3.64
2022-12-03T08:28:26.957Z,-3.67
2022-12-03T08:31:16.304Z,-3.66
2022-12-03T08:33:52.634Z,-3.63
2022-12-03T08:36:29.451Z,-3.62
2022-12-03T08:39:14.883Z,-3.61
2022-12-03T08:42:02.128Z,-3.58
2022-12-03T08:44:38.981Z,-3.54
2022-12-03T08:47:10.299Z,-3.54
2022-12-03T08:49:39.541Z,-3.52
2022-12-03T08:52:16.197Z,-3.48
2022-12-03T08:54:51.499Z,-3.46
2022-12-03T08:57:34.012Z,-3.49
2022-12-03T09:00:23.741Z,-3.50
2022-12-03T09:02:55.162Z,-3.48
2022-12-03T09:05:37.830Z,-3.48
2022-12-03T09:08:08.455Z,-3.46
2022-12-03T09:10:40.321Z,-3.43
2022-12-03T09:13:14.059Z,-3.42
2022-12-03T09:15:42.569Z,-3.45
2022-12-03T09:18:14.998Z,-3.48
2022-12-03T09:20:47.335Z,-3.48
2022-12-03T09:23:17.811Z,-3.45
2022-12-03T09:25:49.153Z,-3.43
2022-12-03T09:28:20.890Z,-3.41
2022-12-03T09:30:56.113Z,-3.38
2022-12-03T09:33:28.079Z,-3.39
2022-12-03T09:35:57.567Z,-3.35
2022-12-03T09:38:28.975Z,-3.32
2022-12-03T09:41:00.404Z,-3.31
2022-12-03T09:43:49.355Z,-3.28
2022-12-03T09:46:22.265Z,-3.28
2022-12-03T09:48:51.425Z,-3.24
2022-12-03T09:51:22.156Z,-3.22
2022-12-03T09:53:53.623Z,-3.25
2022-12-03T09:56:23.758Z,-3.34
2022-12-03T09:58:58.875Z,-3.38
2022-12-03T10:01:30.267Z,-3.38
2022-12-03T10:03:59.729Z,-3.38
2022-12-03T10:06:41.099Z,-3.35
2022-12-03T10:09:20.511Z,-3.28
2022-12-03T10:11:50.225Z,-3.26
2022-12-03T10:14:23.051Z,-3.27
2022-12-03T10:17:06.401Z,-3.23
2022-12-03T10:19:42.654Z,-3.23
2022-12-03T10:22:13.013Z,-3.26
2022-12-03T10:24:41.386Z,-3.24
2022-12-03T10:27:30.023Z,-3.20
2022-12-03T10:30:01.414Z,-3.20
2022-12-03T10:32:44.573Z,-3.19
2022-12-03T10:35:22.127Z,-3.21
2022-12-03T10:37:59.939Z,-3.18
2022-12-03T10:40:39.225Z,-3.16
2022-12-03T10:43:20.427Z,-3.14
2022-12-03T10:46:03.485Z,-3.18
2022-12-03T10:48:32.779Z,-3.18
2022-12-03T10:51:01.021Z,-3.13
2022-12-03T10:53:32.477Z,-3.09
2022-12-03T10:56:03.703Z,-3.08
2022-12-03T10:58:36.321Z,-3.09
2022-12-03T11:01:14.804Z,-3.11
2022-12-03T11:03:43.886Z,-3.10
2022-12-03T11:06:18.097Z,-3.13
2022-12-03T11:08:56.244Z,-3.14
2022-12-03T11:11:28.895Z,-3.11
2022-12-03T11:14:02.272Z,-3.09
2022-12-03T11:16:39.516Z,-3.09
2022-12-03T11:19:13.529Z,-3.09
2022-12-03T11:22:03.707Z,-3.07
2022-12-03T11:24:36.781Z,-3.05
2022-12-03T11:27:21.897Z,-3.00
2022-12-03T11:30:01.863Z,-2.97
2022-12-03T11:32:43.897Z,-3.01
2022-12-03T11:35:24.534Z,-2.98
2022-12-03T11:37:52.897Z,-2.99
2022-12-03T11:40:21.035Z,-3.00
2022-12-03T11:42:49.972Z,-2.98
2022-12-03T11:45:39.884Z,-2.93
2022-12-03T11:48:14.504Z,-2.90
2022-12-03T11:50:53.676Z,-2.95
2022-12-03T11:53:26.104Z,-2.95
2022-12-03T11:56:11.022Z,-2.92
2022-12-03T11:58:45.708Z,-2.91
2022-12-03T12:01:15.547Z,-2.90
2022-12-03T12:03:50.937Z,-2.91
2022-12-03T12:06:21.305Z,-2.91
2022-12-03T12:08:50.084Z,-2.90
2022-12-03T12:11:18.495Z,-2.90
2022-12-03T12:13:55.033Z,-2.90
2022-12-03T12:16:52.443Z,-2.88
2022-12-03T12:19:42.737Z,-2.89
2022-12-03T12:22:31.105Z,-2.90
2022-12-03T12:25:03.816Z,-2.90
2022-12-03T12:27:39.836Z,-2.90
2022-12-03T12:30:20.822Z,-2.86
2022-12-03T12:32:57.811Z,-2.83
2022-12-03T12:35:33.170Z,-2.86
2022-12-03T12:38:07.375Z,-2.85
2022-12-03T12:40:39.301Z,-2.86
2022-12-03T12:43:33.951Z,-2.84
2022-12-03T12:46:46.014Z,-2.78
2022-12-03T12:49:02.222Z,-2.77
2022-12-03T12:51:30.694Z,-2.76
2022-12-03T12:53:59.017Z,-2.78
2022-12-03T12:56:30.609Z,-2.77
2022-12-03T12:59:09.576Z,-2.75
2022-12-03T13:01:38.408Z,-2.77
2022-12-03T13:04:32.034Z,-2.77
2022-12-03T13:07:03.896Z,-2.74
2022-12-03T13:09:33.345Z,-2.73
2022-12-03T13:12:07.813Z,-2.72
2022-12-03T13:14:37.596Z,-2.69
2022-12-03T13:17:27.216Z,-2.66
2022-12-03T13:20:07.522Z,-2.63
2022-12-03T13:22:40.843Z,-2.61
2022-12-03T13:28:32.661Z,-2.68
2022-12-03T13:31:24.535Z,-2.68
2022-12-03T13:33:57.574Z,-2.64
2022-12-03T13:36:38.757Z,-2.64
2022-12-03T13:39:18.452Z,-2.65
2022-12-03T13:42:06.906Z,-2.64
2022-12-03T13:44:43.080Z,-2.63
2022-12-03T13:47:15.319Z,-2.66
2022-12-03T13:50:05.745Z,-2.64
2022-12-03T13:52:36.015Z,-2.60
2022-12-03T13:55:10.864Z,-2.60
2022-12-03T13:57:41.617Z,-2.61
2022-12-03T14:00:11.387Z,-2.61
2022-12-03T14:02:40.176Z,-2.59
2022-12-03T14:05:08.974Z,-2.60
2022-12-03T14:07:39.094Z,-2.61
2022-12-03T14:10:11.829Z,-2.59
2022-12-03T14:12:41.520Z,-2.57
2022-12-03T14:15:11.827Z,-2.55
2022-12-03T14:17:40.952Z,-2.58
2022-12-03T14:20:10.751Z,-2.58
2022-12-03T14:22:46.638Z,-2.60
2022-12-03T14:25:16.755Z,-2.59
2022-12-03T14:27:46.434Z,-2.58
2022-12-03T14:30:17.285Z,-2.58
2022-12-03T14:32:46.143Z,-2.58
2022-12-03T14:35:16.094Z,-2.60
2022-12-03T14:37:47.737Z,-2.62
2022-12-03T14:40:21.155Z,-2.58
2022-12-03T14:42:51.832Z,-2.56
2022-12-03T14:45:22.779Z,-2.57
2022-12-03T14:47:51.729Z,-2.57
2022-12-03T14:50:20.157Z,-2.55
2022-12-03T14:52:49.182Z,-2.54
2022-12-03T14:55:18.103Z,-2.55
2022-12-03T14:57:47.138Z,-2.55
2022-12-03T15:00:24.092Z,-2.55
2022-12-03T15:03:01.681Z,-2.56
2022-12-03T15:05:33.097Z,-2.53
2022-12-03T15:08:01.651Z,-2.51
2022-12-03T15:10:31.087Z,-2.54
2022-12-03T15:12:59.508Z,-2.54
2022-12-03T15:15:28.068Z,-2.54
2022-12-03T15:17:56.432Z,-2.50
2022-12-03T15:20:24.775Z,-2.48
2022-12-03T15:22:53.243Z,-2.46
2022-12-03T15:25:25.674Z,-2.46
2022-12-03T15:27:54.774Z,-2.46
2022-12-03T15:30:23.356Z,-2.47
2022-12-03T15:32:51.929Z,-2.47
2022-12-03T15:35:20.794Z,-2.50
2022-12-03T15:37:54.869Z,-2.50
2022-12-03T15:40:23.585Z,-2.50
2022-12-03T15:42:52.417Z,-2.50
2022-12-03T15:45:22.746Z,-2.50
2022-12-03T15:47:51.211Z,-2.48
2022-12-03T15:50:19.867Z,-2.46
2022-12-03T15:52:48.764Z,-2.48
2022-12-03T15:55:48.480Z,-2.47
2022-12-03T15:58:18.211Z,-2.46
2022-12-03T16:00:46.377Z,-2.47
2022-12-03T16:03:14.960Z,-2.44
2022-12-03T16:05:43.261Z,-2.32
2022-12-03T16:08:11.786Z,-2.34
2022-12-03T16:10:40.930Z,-2.37
2022-12-03T16:13:09.451Z,-2.39
2022-12-03T16:15:38.024Z,-2.35
2022-12-03T16:18:06.712Z,-2.35
2022-12-03T16:20:35.475Z,-2.39
2022-12-03T16:23:04.661Z,-2.41
2022-12-03T16:25:33.045Z,-2.43
2022-12-03T16:28:02.354Z,-2.41
2022-12-03T16:30:31.237Z,-2.40
2022-12-03T16:33:00.332Z,-2.39
2022-12-03T16:35:29.576Z,-2.40
2022-12-03T16:37:57.809Z,-2.41
2022-12-03T16:40:26.364Z,-2.41
2022-12-03T16:42:55.378Z,-2.40
2022-12-03T16:45:29.836Z,-2.39
2022-12-03T16:47:58.531Z,-2.39
2022-12-03T16:50:29.955Z,-2.38
2022-12-03T16:52:59.011Z,-2.37
2022-12-03T16:55:27.423Z,-2.30
2022-12-03T16:57:56.130Z,-2.29
2022-12-03T17:00:26.319Z,-2.32
2022-12-03T17:02:54.931Z,-2.36
2022-12-03T17:05:23.428Z,-2.35
2022-12-03T17:07:52.297Z,-2.34
2022-12-03T17:10:21.300Z,-2.33
2022-12-03T17:15:40.050Z,-2.31
2022-12-03T17:18:09.737Z,-2.29
2022-12-03T17:20:39.171Z,-2.28
2022-12-03T17:23:08.469Z,-2.27
2022-12-03T17:25:36.944Z,-2.27
2022-12-03T17:28:05.427Z,-2.29
2022-12-03T17:30:34.066Z,-2.30
2022-12-03T17:33:02.685Z,-2.27
2022-12-03T17:35:32.015Z,-2.25
2022-12-03T17:38:02.765Z,-2.25
2022-12-03T17:40:31.392Z,-2.25
2022-12-03T17:43:00.392Z,-2.25
2022-12-03T17:45:30.399Z,-2.23
2022-12-03T17:48:00.334Z,-2.15
2022-12-03T17:50:31.302Z,-2.06
2022-12-03T17:53:01.995Z,-2.07
2022-12-03T17:55:38.302Z,-2.09
2022-12-03T17:58:11.204Z,-2.13
2022-12-03T18:00:41.553Z,-2.14
2022-12-03T18:03:10.552Z,-2.15
2022-12-03T18:05:39.826Z,-2.18
2022-12-03T18:08:10.205Z,-2.20
2022-12-03T18:10:40.924Z,-2.20
2022-12-03T18:13:10.256Z,-2.19
2022-12-03T18:15:39.084Z,-2.18
2022-12-03T18:18:07.547Z,-2.19
2022-12-03T18:20:36.202Z,-2.19
2022-12-03T18:23:04.424Z,-2.19
2022-12-03T18:25:33.552Z,-2.14
2022-12-03T18:28:02.872Z,-2.08
2022-12-03T18:30:31.423Z,-2.02
2022-12-03T18:33:02.262Z,-2.04
2022-12-03T18:35:32.013Z,-2.06
2022-12-03T18:38:00.551Z,-2.09
2022-12-03T18:40:29.762Z,-2.11
2022-12-03T18:42:59.521Z,-2.13
2022-12-03T18:45:28.091Z,-2.15
2022-12-03T18:47:56.879Z,-2.15
2022-12-03T18:50:25.422Z,-2.17
2022-12-03T18:52:54.012Z,-2.16
2022-12-03T18:55:23.291Z,-2.12
2022-12-03T18:57:52.332Z,-2.11
2022-12-03T19:00:20.810Z,-2.11
2022-12-03T19:03:05.589Z,-2.13
2022-12-03T19:05:35.907Z,-2.15
2022-12-03T19:08:04.734Z,-2.17
2022-12-03T19:10:33.734Z,-2.18
2022-12-03T19:13:03.895Z,-2.18
2022-12-03T19:15:38.037Z,-2.15
2022-12-03T19:18:07.795Z,-2.14
2022-12-03T19:20:39.607Z,-2.15
2022-12-03T19:23:08.463Z,-2.17
2022-12-03T19:25:36.957Z,-2.17
2022-12-03T19:28:06.184Z,-2.14
2022-12-03T19:30:34.766Z,-2.12
2022-12-03T19:33:03.848Z,-2.10
2022-12-03T19:35:33.051Z,-2.09
2022-12-03T19:38:02.201Z,-2.08
2022-12-03T19:40:35.421Z,-2.08
2022-12-03T19:43:04.029Z,-2.09
2022-12-03T19:45:33.157Z,-2.08
2022-12-03T19:48:02.441Z,-2.09
2022-12-03T19:50:31.159Z,-2.10
2022-12-03T19:53:00.193Z,-2.10
2022-12-03T19:55:28.804Z,-2.09
2022-12-03T19:58:00.785Z,-2.08
2022-12-03T20:00:29.470Z,-2.09
2022-12-03T20:02:58.196Z,-2.08
2022-12-03T20:05:31.761Z,-2.07
2022-12-03T20:08:06.006Z,-2.08
2022-12-03T20:10:39.252Z,-2.05
2022-12-03T20:13:08.745Z,-2.00
2022-12-03T20:15:37.802Z,-2.00
2022-12-03T20:18:06.179Z,-2.02
2022-12-03T20:20:34.452Z,-2.03
2022-12-03T20:23:03.905Z,-2.03
2022-12-03T20:25:32.453Z,-2.01
2022-12-03T20:28:01.345Z,-2.02
2022-12-03T20:30:30.650Z,-2.02
2022-12-03T20:32:59.620Z,-2.03
2022-12-03T20:35:28.709Z,-2.00
2022-12-03T20:37:57.979Z,-2.00
2022-12-03T20:40:26.947Z,-2.00
2022-12-03T20:42:56.108Z,-2.01
2022-12-03T20:45:24.988Z,-2.01
2022-12-03T20:47:53.976Z,-1.97
2022-12-03T20:50:25.348Z,-1.97
2022-12-03T20:53:16.700Z,-1.97
2022-12-03T20:55:42.264Z,-1.96
2022-12-03T20:58:11.479Z,-1.94
2022-12-03T21:00:40.187Z,-1.94
2022-12-03T21:03:09.217Z,-1.93
2022-12-03T21:05:38.208Z,-1.93
2022-12-03T21:08:06.882Z,-1.95
2022-12-03T21:10:45.412Z,-1.96
2022-12-03T21:13:17.110Z,-1.94
2022-12-03T21:15:45.827Z,-1.95
2022-12-03T21:18:16.468Z,-1.94
2022-12-03T21:20:48.891Z,-1.94
2022-12-03T21:23:17.449Z,-1.91
2022-12-03T21:25:45.994Z,-1.89
2022-12-03T21:28:14.421Z,-1.87
2022-12-03T21:30:43.403Z,-1.86
2022-12-03T21:33:11.874Z,-1.83
2022-12-03T21:35:40.957Z,-1.84
2022-12-03T21:38:09.436Z,-1.87
2022-12-03T21:40:38.347Z,-1.86
2022-12-03T21:43:07.180Z,-1.83
2022-12-03T21:45:35.731Z,-1.81
2022-12-03T21:48:04.190Z,-1.82
2022-12-03T21:50:32.626Z,-1.82
2022-12-03T21:53:01.496Z,-1.81
2022-12-03T21:55:30.422Z,-1.79
2022-12-03T21:57:59.540Z,-1.78
2022-12-03T22:00:28.645Z,-1.77
2022-12-03T22:02:58.164Z,-1.76
2022-12-03T22:05:28.191Z,-1.74
2022-12-03T22:07:58.072Z,-1.73
2022-12-03T22:10:28.280Z,-1.73
2022-12-03T22:12:58.648Z,-1.72
2022-12-03T22:15:28.268Z,-1.73
2022-12-03T22:17:56.872Z,-1.71
2022-12-03T22:20:28.061Z,-1.67
2022-12-03T22:22:58.431Z,-1.67
2022-12-03T22:25:31.038Z,-1.68
2022-12-03T22:27:59.633Z,-1.69
2022-12-03T22:30:27.820Z,-1.70
2022-12-03T22:32:56.076Z,-1.70
2022-12-03T22:35:24.395Z,-1.68
2022-12-03T22:37:53.229Z,-1.66
2022-12-03T22:40:21.690Z,-1.68
2022-12-03T22:42:51.364Z,-1.67
2022-12-03T22:45:19.714Z,-1.65
2022-12-03T22:47:48.382Z,-1.65
2022-12-03T22:50:16.769Z,-1.65
2022-12-03T22:52:45.021Z,-1.64
2022-12-03T22:55:13.258Z,-1.64
2022-12-03T22:57:41.432Z,-1.62
2022-12-03T23:00:10.843Z,-1.62
2022-12-03T23:02:39.241Z,-1.63
2022-12-03T23:05:07.928Z,-1.66
2022-12-03T23:07:36.254Z,-1.64
2022-12-03T23:10:06.002Z,-1.60
2022-12-03T23:12:34.777Z,-1.55
2022-12-03T23:15:03.075Z,-1.55
2022-12-03T23:17:31.579Z,-1.56
2022-12-03T23:19:59.994Z,-1.57
2022-12-03T23:22:29.735Z,-1.60
2022-12-03T23:24:58.174Z,-1.59
2022-12-03T23:27:28.441Z,-1.56
2022-12-03T23:29:57.777Z,-1.56
2022-12-03T23:32:27.155Z,-1.59
2022-12-03T23:34:55.722Z,-1.57
2022-12-03T23:37:24.296Z,-1.55
2022-12-03T23:39:52.922Z,-1.55
2022-12-03T23:42:21.688Z,-1.52
2022-12-03T23:44:49.907Z,-1.52
2022-12-03T23:47:21.036Z,-1.53
2022-12-03T23:49:49.436Z,-1.52
2022-12-03T23:52:17.795Z,-1.52
2022-12-03T23:54:46.454Z,-1.53
2022-12-03T23:57:15.988Z,-1.53
2022-12-03T23:59:44.752Z,-1.53
